Back to Top

Language: 

My Weather Underground Personal Weather Station Historical Data with Graphs...

Delerius Weather Station Historical Data
Daily Summary for February 18, 2017 Units:  Metric    English   Both
« Previous Day
Next Day »
Daily Weekly Monthly Yearly Custom
  High: Low: Average:
Temperature: 12.8 °C 6.3 °C 9.3 °C
Dew Point: 9.1 °C 4.9 °C 7.1 °C
Humidity: 93 % 77 % 86 %
Wind Speed: 20.9 km/h 0 km/h 6.4 km/h
Wind Gust: 29 km/h - -
Wind:- - SSW
Pressure: 1023.9 hPa 1018.2 hPa -
Precipitation: 0 mm    
Historical Graphs
 
 
Tabular Data for February 18, 2017
Time Temperature Dew Point Pressure Wind Wind Speed Wind Gust Humidity Rainfall Rate (Hourly) solar Conditions
00:00 9.2 °C 6.8 °C 1023.9 hPa SW 1.6 km/h 1.6 km/h 85 % 0 mm 0 W/m2
00:05 9.1 °C 6.7 °C 1023.6 hPa Calm   1.6 km/h 85 % 0 mm 0 W/m2
00:15 8.9 °C 6.6 °C 1023.6 hPa Calm     85 % 0 mm 0 W/m2
00:20 8.9 °C 6.7 °C 1023.6 hPa Calm   3.2 km/h 86 % 0 mm 0 W/m2
00:35 8.7 °C 6.6 °C 1023.6 hPa South 1.6 km/h 1.6 km/h 87 % 0 mm 0 W/m2
00:40 8.6 °C 6.5 °C 1023.6 hPa Calm   1.6 km/h 87 % 0 mm 0 W/m2
00:45 8.5 °C 6.6 °C 1023.6 hPa Calm   1.6 km/h 88 % 0 mm 0 W/m2
00:50 8.5 °C 6.6 °C 1023.2 hPa Calm     88 % 0 mm 0 W/m2
01:00 8.4 °C 6.5 °C 1023.6 hPa Calm     88 % 0 mm 0 W/m2
01:10 8.4 °C 6.7 °C 1023.6 hPa Calm   9.7 km/h 89 % 0 mm 0 W/m2
01:15 8.4 °C 6.7 °C 1023.2 hPa Calm   9.7 km/h 89 % 0 mm 0 W/m2
01:25 8.4 °C 6.7 °C 1023.2 hPa Calm   9.7 km/h 89 % 0 mm 0 W/m2
01:30 8.3 °C 6.6 °C 1023.2 hPa Calm   9.7 km/h 89 % 0 mm 0 W/m2
01:35 8.3 °C 6.6 °C 1023.2 hPa Calm   9.7 km/h 89 % 0 mm 0 W/m2
01:40 8.3 °C 6.6 °C 1023.2 hPa Calm   9.7 km/h 89 % 0 mm 0 W/m2
01:50 8.3 °C 6.6 °C 1023.2 hPa Calm   9.7 km/h 89 % 0 mm 0 W/m2
01:55 8.3 °C 6.6 °C 1023.2 hPa Calm   9.7 km/h 89 % 0 mm 0 W/m2
02:05 8.1 °C 6.4 °C 1022.9 hPa Calm   9.7 km/h 89 % 0 mm 0 W/m2
02:10 8.1 °C 6.5 °C 1022.9 hPa Calm   9.7 km/h 90 % 0 mm 0 W/m2
02:20 7.9 °C 6.3 °C 1022.9 hPa South 1.6 km/h 1.6 km/h 90 % 0 mm 0 W/m2
02:25 7.8 °C 6.3 °C 1022.9 hPa South 1.6 km/h 9.7 km/h 90 % 0 mm 0 W/m2
02:30 7.8 °C 6.4 °C 1022.9 hPa Calm   9.7 km/h 91 % 0 mm 0 W/m2
02:35 7.8 °C 6.4 °C 1022.9 hPa Calm   9.7 km/h 91 % 0 mm 0 W/m2
02:45 7.8 °C 6.4 °C 1022.9 hPa South 1.6 km/h 9.7 km/h 91 % 0 mm 0 W/m2
02:50 7.8 °C 6.4 °C 1022.9 hPa South 1.6 km/h 1.6 km/h 91 % 0 mm 0 W/m2
02:55 7.7 °C 6.3 °C 1022.9 hPa Calm   9.7 km/h 91 % 0 mm 0 W/m2
03:05 7.6 °C 6.2 °C 1022.6 hPa Calm   9.7 km/h 91 % 0 mm 0 W/m2
03:15 7.6 °C 6.4 °C 1022.2 hPa South 1.6 km/h 9.7 km/h 92 % 0 mm 0 W/m2
03:25 7.8 °C 6.4 °C 1022.2 hPa Calm   9.7 km/h 91 % 0 mm 0 W/m2
03:30 7.8 °C 6.4 °C 1022.2 hPa Calm   9.7 km/h 91 % 0 mm 0 W/m2
03:35 7.9 °C 6.5 °C 1022.2 hPa Calm   9.7 km/h 91 % 0 mm 0 W/m2
03:45 7.9 °C 6.5 °C 1022.2 hPa Calm   9.7 km/h 91 % 0 mm 0 W/m2
03:50 7.9 °C 6.5 °C 1022.2 hPa Calm   9.7 km/h 91 % 0 mm 0 W/m2
03:55 7.8 °C 6.4 °C 1021.9 hPa South 1.6 km/h 9.7 km/h 91 % 0 mm 0 W/m2
04:00 7.7 °C 6.3 °C 1021.9 hPa South 1.6 km/h 9.7 km/h 91 % 0 mm 0 W/m2
04:10 7.6 °C 6.2 °C 1021.9 hPa Calm   9.7 km/h 91 % 0 mm 0 W/m2
04:15 7.6 °C 6.2 °C 1021.9 hPa Calm   9.7 km/h 91 % 0 mm 0 W/m2
04:20 7.6 °C 6.2 °C 1021.9 hPa Calm   9.7 km/h 91 % 0 mm 0 W/m2
04:25 7.6 °C 6 °C 1021.9 hPa Calm   9.7 km/h 90 % 0 mm 0 W/m2
04:30 7.5 °C 5.9 °C 1021.9 hPa Calm   9.7 km/h 90 % 0 mm 0 W/m2
04:40 7.3 °C 5.8 °C 1021.9 hPa Calm   9.7 km/h 90 % 0 mm 0 W/m2
04:45 7.2 °C 5.7 °C 1022.2 hPa Calm   9.7 km/h 90 % 0 mm 0 W/m2
04:50 7.1 °C 5.6 °C 1021.9 hPa Calm   9.7 km/h 90 % 0 mm 0 W/m2
04:55 7 °C 5.4 °C 1021.9 hPa Calm   9.7 km/h 90 % 0 mm 0 W/m2
05:05 6.8 °C 5.4 °C 1021.9 hPa South 1.6 km/h 9.7 km/h 91 % 0 mm 0 W/m2
05:10 6.7 °C 5.3 °C 1021.9 hPa Calm   9.7 km/h 91 % 0 mm 0 W/m2
05:15 6.6 °C 5.2 °C 1021.9 hPa South 1.6 km/h 9.7 km/h 91 % 0 mm 0 W/m2
05:20 6.6 °C 5.2 °C 1021.9 hPa NE 1.6 km/h 9.7 km/h 91 % 0 mm 0 W/m2
05:30 6.4 °C 5 °C 1021.9 hPa NE 1.6 km/h 9.7 km/h 91 % 0 mm 0 W/m2
05:35 6.3 °C 4.9 °C 1021.9 hPa NE 3.2 km/h 9.7 km/h 91 % 0 mm 0 W/m2
05:40 6.4 °C 5.2 °C 1021.6 hPa NE 1.6 km/h 1.6 km/h 92 % 0 mm 0 W/m2
05:45 6.4 °C 5.2 °C 1021.9 hPa NE 1.6 km/h 4.8 km/h 92 % 0 mm 0 W/m2
05:50 6.5 °C 5.3 °C 1021.6 hPa West 3.2 km/h 3.2 km/h 92 % 0 mm 0 W/m2
06:05 6.4 °C 5.1 °C 1021.6 hPa East 1.6 km/h 9.7 km/h 91 % 0 mm 0 W/m2
06:10 6.4 °C 5.1 °C 1021.6 hPa Calm   9.7 km/h 91 % 0 mm 0 W/m2
06:15 6.4 °C 5.1 °C 1021.6 hPa Calm   9.7 km/h 91 % 0 mm 0 W/m2
06:20 6.4 °C 5 °C 1021.6 hPa East 1.6 km/h 9.7 km/h 91 % 0 mm 0 W/m2
06:25 6.4 °C 5.2 °C 1021.6 hPa East 1.6 km/h 9.7 km/h 92 % 0 mm 0 W/m2
06:35 6.4 °C 5.2 °C 1021.6 hPa East 1.6 km/h 9.7 km/h 92 % 0 mm 0 W/m2
06:40 6.4 °C 5.2 °C 1021.6 hPa East 1.6 km/h 1.6 km/h 92 % 0 mm 0 W/m2
06:45 6.3 °C 5.1 °C 1021.6 hPa Calm   9.7 km/h 92 % 0 mm 0 W/m2
06:50 6.4 °C 5.3 °C 1021.6 hPa Calm   9.7 km/h 93 % 0 mm 0 W/m2
06:55 6.6 °C 5.3 °C 1021.6 hPa West 1.6 km/h 9.7 km/h 92 % 0 mm 0 W/m2
07:05 6.5 °C 5.3 °C 1021.6 hPa Calm   9.7 km/h 92 % 0 mm 0 W/m2
07:10 6.5 °C 5.3 °C 1021.6 hPa Calm   9.7 km/h 92 % 0 mm 0 W/m2
07:15 6.5 °C 5.3 °C 1021.9 hPa NW 1.6 km/h 9.7 km/h 92 % 0 mm 0 W/m2
07:20 6.4 °C 5.2 °C 1021.9 hPa NW 3.2 km/h 9.7 km/h 92 % 0 mm 5 W/m2
07:30 6.4 °C 5.2 °C 1021.9 hPa NW 3.2 km/h 3.2 km/h 92 % 0 mm 11 W/m2
07:40 6.6 °C 5.4 °C 1021.9 hPa WSW 1.6 km/h 1.6 km/h 92 % 0 mm 16 W/m2
07:45 6.7 °C 5.4 °C 1021.9 hPa West 1.6 km/h 9.7 km/h 92 % 0 mm 18 W/m2
07:50 6.7 °C 5.5 °C 1021.9 hPa West 1.6 km/h 9.7 km/h 92 % 0 mm 19 W/m2
08:00 6.8 °C 5.4 °C 1021.9 hPa West 1.6 km/h 1.6 km/h 91 % 0 mm 37 W/m2
08:05 6.9 °C 5.5 °C 1021.9 hPa Calm   9.7 km/h 91 % 0 mm 44 W/m2
08:10 6.9 °C 5.5 °C 1021.9 hPa Calm   9.7 km/h 91 % 0 mm 32 W/m2
08:20 6.8 °C 5.4 °C 1021.9 hPa Calm   9.7 km/h 91 % 0 mm 35 W/m2
08:25 6.8 °C 5.4 °C 1021.9 hPa Calm   9.7 km/h 91 % 0 mm 40 W/m2
08:30 6.9 °C 5.5 °C 1021.9 hPa Calm   9.7 km/h 91 % 0 mm 76 W/m2
08:40 7 °C 5.6 °C 1021.9 hPa Calm   9.7 km/h 91 % 0 mm 67 W/m2
08:45 7.1 °C 5.7 °C 1021.9 hPa West 1.6 km/h 9.7 km/h 91 % 0 mm 90 W/m2
08:50 7.2 °C 5.8 °C 1021.9 hPa West 1.6 km/h 1.6 km/h 91 % 0 mm 88 W/m2
08:55 7.3 °C 5.9 °C 1021.9 hPa Calm   9.7 km/h 91 % 0 mm 81 W/m2
09:05 7.6 °C 6.2 °C 1021.9 hPa West 1.6 km/h 6.4 km/h 91 % 0 mm 86 W/m2
09:10 7.7 °C 6.3 °C 1021.9 hPa West 1.6 km/h 9.7 km/h 91 % 0 mm 86 W/m2
09:15 7.8 °C 6.3 °C 1021.9 hPa West 3.2 km/h 9.7 km/h 90 % 0 mm 98 W/m2
09:20 7.9 °C 6.4 °C 1021.9 hPa West 1.6 km/h 1.6 km/h 90 % 0 mm 121 W/m2
09:25 8.1 °C 6.6 °C 1021.9 hPa West 1.6 km/h 4.8 km/h 90 % 0 mm 128 W/m2
09:30 8.3 °C 6.7 °C 1021.9 hPa West 3.2 km/h 3.2 km/h 90 % 0 mm 118 W/m2
09:40 8.7 °C 6.9 °C 1021.9 hPa SW 3.2 km/h 9.7 km/h 89 % 0 mm 107 W/m2
09:45 8.9 °C 7.1 °C 1022.2 hPa SSW 6.4 km/h 9.7 km/h 88 % 0 mm 84 W/m2
09:50 9.1 °C 7.1 °C 1022.2 hPa SW 6.4 km/h 6.4 km/h 87 % 0 mm 84 W/m2
09:55 9.2 °C 7.2 °C 1022.2 hPa SSW 4.8 km/h 9.7 km/h 87 % 0 mm 100 W/m2
10:00 9.3 °C 7.1 °C 1022.2 hPa SSW 4.8 km/h 9.7 km/h 86 % 0 mm 104 W/m2
10:10 9.6 °C 7.3 °C 1022.2 hPa South 6.4 km/h 9.7 km/h 86 % 0 mm 121 W/m2
10:15 9.7 °C 7.3 °C 1021.9 hPa SSW 6.4 km/h 9.7 km/h 85 % 0 mm 130 W/m2
10:20 9.8 °C 7.4 °C 1022.2 hPa SSW 4.8 km/h 11.3 km/h 85 % 0 mm 128 W/m2
10:25 9.9 °C 7.6 °C 1022.2 hPa SW 4.8 km/h 11.3 km/h 85 % 0 mm 116 W/m2
10:35 10.1 °C 7.6 °C 1022.2 hPa SW 6.4 km/h 9.7 km/h 84 % 0 mm 88 W/m2
10:40 10.2 °C 7.6 °C 1022.2 hPa SSW 4.8 km/h 9.7 km/h 84 % 0 mm 84 W/m2
10:45 10.2 °C 7.6 °C 1022.2 hPa SSW 4.8 km/h 9.7 km/h 84 % 0 mm 97 W/m2
10:50 10.3 °C 7.7 °C 1022.2 hPa SSW 3.2 km/h 3.2 km/h 84 % 0 mm 98 W/m2
11:00 10.3 °C 7.7 °C 1021.9 hPa SSW 1.6 km/h 9.7 km/h 84 % 0 mm 107 W/m2
11:05 10.4 °C 7.8 °C 1021.9 hPa SSW 1.6 km/h 9.7 km/h 84 % 0 mm 105 W/m2
11:10 10.4 °C 7.6 °C 1021.9 hPa SSW 1.6 km/h 1.6 km/h 83 % 0 mm 104 W/m2
11:15 10.4 °C 7.7 °C 1021.9 hPa Calm   9.7 km/h 83 % 0 mm 121 W/m2
11:20 10.6 °C 7.8 °C 1021.9 hPa Calm   9.7 km/h 83 % 0 mm 121 W/m2
11:30 10.8 °C 8.1 °C 1021.9 hPa Calm   9.7 km/h 83 % 0 mm 135 W/m2
11:40 11 °C 8.1 °C 1021.9 hPa SE 4.8 km/h 9.7 km/h 82 % 0 mm 186 W/m2
11:45 11.1 °C 8.1 °C 1021.9 hPa ESE 6.4 km/h 9.7 km/h 82 % 0 mm 178 W/m2
11:50 11.2 °C 8.2 °C 1021.9 hPa ESE 4.8 km/h 9.7 km/h 82 % 0 mm 179 W/m2
11:55 11.2 °C 8.3 °C 1021.6 hPa ESE 4.8 km/h 9.7 km/h 82 % 0 mm 178 W/m2
12:05 11.4 °C 8.3 °C 1021.6 hPa SSW 6.4 km/h 6.4 km/h 81 % 0 mm 127 W/m2
12:10 11.5 °C 8.2 °C 1021.2 hPa South 9.7 km/h 20.9 km/h 80 % 0 mm 127 W/m2
12:15 11.4 °C 8.1 °C 1021.2 hPa South 11.3 km/h 20.9 km/h 80 % 0 mm 132 W/m2
12:25 11.4 °C 8.3 °C 1021.2 hPa SSW 9.7 km/h 11.3 km/h 81 % 0 mm 192 W/m2
12:30 11.5 °C 8.3 °C 1021.2 hPa South 9.7 km/h 9.7 km/h 81 % 0 mm 221 W/m2
12:35 11.5 °C 8.3 °C 1020.9 hPa SSW 11.3 km/h 11.3 km/h 81 % 0 mm 206 W/m2
12:40 11.5 °C 8.3 °C 1020.9 hPa South 9.7 km/h 9.7 km/h 81 % 0 mm 209 W/m2
12:50 11.6 °C 8.4 °C 1020.5 hPa SSW 9.7 km/h 9.7 km/h 81 % 0 mm 234 W/m2
12:55 11.7 °C 8.6 °C 1020.5 hPa SW 9.7 km/h 9.7 km/h 81 % 0 mm 155 W/m2
13:00 11.8 °C 8.5 °C 1020.5 hPa SW 9.7 km/h 9.7 km/h 80 % 0 mm 149 W/m2
13:05 12 °C 8.7 °C 1020.5 hPa SW 9.7 km/h 12.9 km/h 80 % 0 mm 148 W/m2
13:15 12.1 °C 8.8 °C 1020.5 hPa SSW 9.7 km/h 11.3 km/h 80 % 0 mm 188 W/m2
13:20 12.2 °C 8.7 °C 1020.5 hPa SSW 9.7 km/h 9.7 km/h 79 % 0 mm 183 W/m2
13:25 12.3 °C 8.7 °C 1020.5 hPa SSW 9.7 km/h 9.7 km/h 79 % 0 mm 209 W/m2
13:30 12.4 °C 8.8 °C 1020.5 hPa SW 9.7 km/h 9.7 km/h 79 % 0 mm 299 W/m2
13:40 12.8 °C 9.1 °C 1020.2 hPa SSW 12.9 km/h 17.7 km/h 78 % 0 mm 279 W/m2
13:50 12.8 °C 9.1 °C 1020.2 hPa SW 11.3 km/h 11.3 km/h 78 % 0 mm 207 W/m2
13:55 12.7 °C 8.8 °C 1019.9 hPa SW 11.3 km/h 24.1 km/h 77 % 0 mm 188 W/m2
14:00 12.5 °C 8.8 °C 1019.9 hPa WSW 14.5 km/h 14.5 km/h 78 % 0 mm 188 W/m2
14:10 12.4 °C 8.7 °C 1019.9 hPa SSW 14.5 km/h 14.5 km/h 78 % 0 mm 322 W/m2
14:15 12.5 °C 8.9 °C 1019.5 hPa SSW 14.5 km/h 17.7 km/h 79 % 0 mm 246 W/m2
14:20 12.4 °C 8.7 °C 1019.5 hPa South 12.9 km/h 14.5 km/h 78 % 0 mm 186 W/m2
14:25 12.2 °C 8.5 °C 1019.5 hPa South 12.9 km/h 17.7 km/h 78 % 0 mm 179 W/m2
14:35 12.1 °C 8.5 °C 1019.5 hPa SSE 12.9 km/h 14.5 km/h 79 % 0 mm 186 W/m2
14:40 12.2 °C 8.6 °C 1019.2 hPa South 12.9 km/h 16.1 km/h 79 % 0 mm 417 W/m2
14:45 12.3 °C 8.6 °C 1019.2 hPa South 14.5 km/h 19.3 km/h 78 % 0 mm 269 W/m2
14:50 12.5 °C 8.6 °C 1019.5 hPa SSW 14.5 km/h 14.5 km/h 77 % 0 mm 123 W/m2
14:55 12.3 °C 8.4 °C 1019.2 hPa SSE 12.9 km/h 14.5 km/h 77 % 0 mm 123 W/m2
15:05 12.1 °C 8.3 °C 1019.5 hPa SSE 12.9 km/h 20.9 km/h 78 % 0 mm 123 W/m2
15:15 11.9 °C 8.2 °C 1019.2 hPa SE 11.3 km/h 11.3 km/h 78 % 0 mm 109 W/m2
15:20 11.8 °C 8.3 °C 1019.2 hPa SSE 9.7 km/h 9.7 km/h 79 % 0 mm 120 W/m2
15:25 11.8 °C 8.3 °C 1019.2 hPa SSE 6.4 km/h 9.7 km/h 79 % 0 mm 158 W/m2
15:35 11.9 °C 8.3 °C 1019.2 hPa South 6.4 km/h 9.7 km/h 79 % 0 mm 258 W/m2
15:40 11.9 °C 8.3 °C 1019.2 hPa South 8 km/h 9.7 km/h 79 % 0 mm 130 W/m2
15:45 11.8 °C 8.3 °C 1019.2 hPa SSW 6.4 km/h 9.7 km/h 79 % 0 mm 223 W/m2
15:55 11.7 °C 8.4 °C 1019.2 hPa South 6.4 km/h 9.7 km/h 80 % 0 mm 63 W/m2
16:00 11.6 °C 8.3 °C 1019.2 hPa SSE 4.8 km/h 4.8 km/h 80 % 0 mm 63 W/m2
16:05 11.6 °C 8.3 °C 1019.2 hPa SSE 1.6 km/h 9.7 km/h 80 % 0 mm 62 W/m2
16:15 11.6 °C 8.3 °C 1019.5 hPa WSW 1.6 km/h 9.7 km/h 80 % 0 mm 58 W/m2
16:20 11.6 °C 8.3 °C 1019.5 hPa SSW 4.8 km/h 9.7 km/h 80 % 0 mm 47 W/m2
16:30 11.5 °C 8.3 °C 1019.2 hPa SSW 8 km/h 11.3 km/h 81 % 0 mm 53 W/m2
16:35 11.4 °C 8.2 °C 1019.2 hPa South 11.3 km/h 11.3 km/h 81 % 0 mm 49 W/m2
16:45 11.2 °C 8 °C 1019.2 hPa SSW 6.4 km/h 11.3 km/h 81 % 0 mm 28 W/m2
16:50 11.1 °C 8.2 °C 1019.2 hPa SSE 4.8 km/h 9.7 km/h 82 % 0 mm 26 W/m2
16:55 11.1 °C 8.1 °C 1019.2 hPa SSE 3.2 km/h 9.7 km/h 82 % 0 mm 19 W/m2
17:00 10.9 °C 8 °C 1019.2 hPa SSE 3.2 km/h 9.7 km/h 82 % 0 mm 16 W/m2
17:05 10.9 °C 7.9 °C 1019.2 hPa SE 6.4 km/h 9.7 km/h 82 % 0 mm 14 W/m2
17:15 10.7 °C 7.9 °C 1019.2 hPa South 6.4 km/h 9.7 km/h 83 % 0 mm 9 W/m2
17:20 10.6 °C 8 °C 1019.2 hPa SE 6.4 km/h 9.7 km/h 84 % 0 mm 7 W/m2
17:25 10.5 °C 7.9 °C 1019.2 hPa SSE 6.4 km/h 14.5 km/h 84 % 0 mm 7 W/m2
17:30 10.4 °C 7.8 °C 1019.2 hPa South 6.4 km/h 6.4 km/h 84 % 0 mm 0 W/m2
17:35 10.3 °C 7.7 °C 1019.2 hPa SSW 4.8 km/h 9.7 km/h 84 % 0 mm 0 W/m2
17:40 10.3 °C 7.9 °C 1019.2 hPa SW 3.2 km/h 11.3 km/h 85 % 0 mm 0 W/m2
17:45 10.2 °C 7.8 °C 1019.2 hPa WSW 4.8 km/h 11.3 km/h 85 % 0 mm 0 W/m2
17:55 10.1 °C 7.7 °C 1019.2 hPa WSW 8 km/h 11.3 km/h 85 % 0 mm 0 W/m2
18:00 10.1 °C 7.7 °C 1019.2 hPa WSW 9.7 km/h 14.5 km/h 85 % 0 mm 0 W/m2
18:05 10.1 °C 7.7 °C 1019.2 hPa SW 11.3 km/h 14.5 km/h 85 % 0 mm 0 W/m2
18:10 10.1 °C 7.7 °C 1019.2 hPa SW 12.9 km/h 12.9 km/h 85 % 0 mm 0 W/m2
18:20 10.1 °C 7.7 °C 1019.2 hPa SW 14.5 km/h 14.5 km/h 85 % 0 mm 0 W/m2
18:25 10.1 °C 7.7 °C 1019.2 hPa SW 14.5 km/h 14.5 km/h 85 % 0 mm 0 W/m2
18:30 10 °C 7.8 °C 1019.2 hPa SW 11.3 km/h 11.3 km/h 86 % 0 mm 0 W/m2
18:40 9.9 °C 7.7 °C 1019.5 hPa SW 6.4 km/h 9.7 km/h 86 % 0 mm 0 W/m2
18:45 9.8 °C 7.6 °C 1019.5 hPa SW 6.4 km/h 9.7 km/h 86 % 0 mm 0 W/m2
18:50 9.8 °C 7.6 °C 1019.2 hPa SW 4.8 km/h 4.8 km/h 86 % 0 mm 0 W/m2
18:55 9.7 °C 7.5 °C 1019.2 hPa SW 3.2 km/h 6.4 km/h 86 % 0 mm 0 W/m2
19:00 9.6 °C 7.6 °C 1019.2 hPa WSW 4.8 km/h 9.7 km/h 87 % 0 mm 0 W/m2
19:05 9.6 °C 7.5 °C 1019.2 hPa WSW 8 km/h 11.3 km/h 87 % 0 mm 0 W/m2
19:10 9.5 °C 7.4 °C 1019.2 hPa SSW 9.7 km/h 9.7 km/h 87 % 0 mm 0 W/m2
19:20 9.3 °C 7.4 °C 1019.5 hPa WSW 9.7 km/h 12.9 km/h 88 % 0 mm 0 W/m2
19:25 9.3 °C 7.4 °C 1019.5 hPa WSW 9.7 km/h 12.9 km/h 88 % 0 mm 0 W/m2
19:30 9.3 °C 7.4 °C 1019.5 hPa WSW 9.7 km/h 9.7 km/h 88 % 0 mm 0 W/m2
19:35 9.2 °C 7.3 °C 1019.5 hPa WSW 8 km/h 9.7 km/h 88 % 0 mm 0 W/m2
19:40 9.2 °C 7.3 °C 1019.5 hPa WSW 8 km/h 8 km/h 88 % 0 mm 0 W/m2
19:45 9.2 °C 7.5 °C 1019.9 hPa West 6.4 km/h 9.7 km/h 89 % 0 mm 0 W/m2
19:50 9.2 °C 7.5 °C 1019.9 hPa WSW 4.8 km/h 4.8 km/h 89 % 0 mm 0 W/m2
20:00 9.3 °C 7.6 °C 1019.5 hPa WNW 9.7 km/h 11.3 km/h 89 % 0 mm 0 W/m2
20:15 10 °C 7.8 °C 1019.9 hPa WSW 16.1 km/h 29 km/h 86 % 0 mm 0 W/m2
20:20 10.1 °C 7.7 °C 1019.5 hPa WNW 17.7 km/h 25.7 km/h 85 % 0 mm 0 W/m2
20:25 10.2 °C 7.8 °C 1019.9 hPa West 17.7 km/h 25.7 km/h 85 % 0 mm 0 W/m2
20:30 10.2 °C 7.6 °C 1019.9 hPa WSW 16.1 km/h 20.9 km/h 84 % 0 mm 0 W/m2
20:35 10.2 °C 7.6 °C 1019.9 hPa West 17.7 km/h 25.7 km/h 84 % 0 mm 0 W/m2
20:40 10.2 °C 7.6 °C 1019.5 hPa WSW 19.3 km/h 19.3 km/h 84 % 0 mm 0 W/m2
20:50 10.1 °C 7.7 °C 1019.5 hPa WSW 20.9 km/h 20.9 km/h 85 % 0 mm 0 W/m2
20:55 10.1 °C 7.7 °C 1019.5 hPa WSW 19.3 km/h 20.9 km/h 85 % 0 mm 0 W/m2
21:00 10.1 °C 7.8 °C 1019.5 hPa WSW 16.1 km/h 24.1 km/h 86 % 0 mm 0 W/m2
21:05 10 °C 7.8 °C 1019.5 hPa SW 16.1 km/h 24.1 km/h 86 % 0 mm 0 W/m2
21:10 10 °C 7.8 °C 1019.5 hPa WSW 16.1 km/h 17.7 km/h 86 % 0 mm 0 W/m2
21:15 10 °C 7.8 °C 1019.5 hPa SW 16.1 km/h 19.3 km/h 86 % 0 mm 0 W/m2
21:20 9.9 °C 7.7 °C 1019.5 hPa SW 16.1 km/h 16.1 km/h 86 % 0 mm 0 W/m2
21:30 9.9 °C 7.7 °C 1019.5 hPa SW 14.5 km/h 16.1 km/h 86 % 0 mm 0 W/m2
21:35 9.8 °C 7.6 °C 1019.5 hPa WSW 14.5 km/h 16.1 km/h 86 % 0 mm 0 W/m2
21:40 9.8 °C 7.6 °C 1019.5 hPa WSW 14.5 km/h 16.1 km/h 86 % 0 mm 0 W/m2
21:45 9.8 °C 7.6 °C 1019.5 hPa WSW 14.5 km/h 16.1 km/h 86 % 0 mm 0 W/m2
21:55 9.8 °C 7.6 °C 1019.2 hPa SW 14.5 km/h 22.5 km/h 86 % 0 mm 0 W/m2
22:00 9.8 °C 7.6 °C 1019.2 hPa WSW 16.1 km/h 17.7 km/h 86 % 0 mm 0 W/m2
22:10 9.8 °C 7.6 °C 1018.8 hPa SW 14.5 km/h 16.1 km/h 86 % 0 mm 0 W/m2
22:15 9.8 °C 7.6 °C 1018.8 hPa WSW 16.1 km/h 16.1 km/h 86 % 0 mm 0 W/m2
22:20 9.8 °C 7.6 °C 1018.8 hPa SW 16.1 km/h 16.1 km/h 86 % 0 mm 0 W/m2
22:25 9.7 °C 7.4 °C 1018.5 hPa WSW 14.5 km/h 22.5 km/h 86 % 0 mm 0 W/m2
22:30 9.6 °C 7.4 °C 1018.5 hPa WSW 14.5 km/h 14.5 km/h 86 % 0 mm 0 W/m2
22:35 9.6 °C 7.3 °C 1018.5 hPa SW 14.5 km/h 19.3 km/h 86 % 0 mm 0 W/m2
22:40 9.5 °C 7.3 °C 1018.5 hPa WSW 14.5 km/h 17.7 km/h 86 % 0 mm 0 W/m2
22:45 9.5 °C 7.3 °C 1018.5 hPa SW 14.5 km/h 17.7 km/h 86 % 0 mm 0 W/m2
22:55 9.4 °C 7.2 °C 1018.2 hPa SW 12.9 km/h 14.5 km/h 86 % 0 mm 0 W/m2
23:00 9.4 °C 7.2 °C 1018.2 hPa SW 14.5 km/h 14.5 km/h 86 % 0 mm 0 W/m2
23:05 9.5 °C 7.3 °C 1018.2 hPa SW 14.5 km/h 17.7 km/h 86 % 0 mm 0 W/m2
23:10 9.6 °C 7.4 °C 1018.2 hPa SSW 16.1 km/h 16.1 km/h 86 % 0 mm 0 W/m2
23:15 9.7 °C 7.4 °C 1018.2 hPa West 16.1 km/h 20.9 km/h 86 % 0 mm 0 W/m2
23:20 9.7 °C 7.5 °C 1018.5 hPa WSW 14.5 km/h 14.5 km/h 86 % 0 mm 0 W/m2
23:25 9.8 °C 7.6 °C 1018.5 hPa WSW 12.9 km/h 14.5 km/h 86 % 0 mm 0 W/m2
23:35 9.9 °C 7.5 °C 1018.5 hPa SW 12.9 km/h 25.7 km/h 85 % 0 mm 0 W/m2
23:45 10 °C 7.6 °C 1018.5 hPa WSW 17.7 km/h 22.5 km/h 85 % 0 mm 0 W/m2
23:50 10 °C 7.6 °C 1018.2 hPa SW 16.1 km/h 17.7 km/h 85 % 0 mm 0 W/m2
23:55 10 °C 7.6 °C 1018.5 hPa WSW 14.5 km/h 17.7 km/h 85 % 0 mm 0 W/m2
Delerius-Weather
Compliments of Weather Underground - 2 mb

Data updates at regular intervals.